Clarion Municipal Airport
Monday 1:55 PM
Weather Sunny
VFR
Temperature 77°
Dew Point 32°
Feels Like 77°
Relative Humidity 19
%
Visibility 10
mi
Pressure 1014.2
mb
Wind Direction ESE
Wind Speed 21
mph
Last Hour Precip 0.00
"
KCAV 151855Z AUTO 12018KT 10SM CLR 25/00 A2995 RMK A01

Recent Observations

Time Present Weather Temp DP Feels RH% Vsby Pressure Ceiling Direction Speed Gust 1h Precip
1:55PM
VFR
77° 32° 77° 19
%
10
mi
1014.2
mb
None ESE 21
mph
0.00"
KCAV 151855Z AUTO 12018KT 10SM CLR 25/00 A2995 RMK A01
1:35PM
VFR
77° 32° 77° 19
%
10
mi
1014.6
mb
None ESE 18
mph
24
mph
0.00"
KCAV 151835Z AUTO 11016G21KT 10SM CLR 25/M00 A2996 RMK A01
1:15PM
VFR
77° 32° 77° 19
%
10
mi
1014.6
mb
None SE 18
mph
0.00"
KCAV 151815Z AUTO 13016KT 10SM CLR 25/00 A2996 RMK A01
🚩
12:55PM
VFR
77° 32° 77° 19
%
10
mi
1014.6
mb
None ESE 18
mph
25
mph
0.00"
KCAV 151755Z AUTO 12016G22KT 10SM CLR 25/00 A2996 RMK A01
12:35PM
VFR
75° 32° 75° 20
%
10
mi
1014.9
mb
None E 20
mph
0.00"
KCAV 151735Z AUTO 09017KT 10SM CLR 24/M00 A2997 RMK A01
12:15PM
VFR
73° 32° 73° 22
%
10
mi
1015.2
mb
None E 17
mph
24
mph
0.00"
KCAV 151715Z AUTO 10015G21KT 10SM CLR 23/M00 A2998 RMK A01
🚩
11:55AM 73° 32° 73° 22
%
1015.2
mb
None E 20
mph
26
mph
0.00"
KCAV 151655Z AUTO 10017G23KT CLR 23/M00 A2998 RMK A01
11:35AM
VFR
72° 32° 72° 23
%
10
mi
1015.2
mb
None E 24
mph
0.00"
KCAV 151635Z AUTO 09021KT 10SM CLR 22/00 A2998 RMK A01
11:15AM
VFR
72° 34° 72° 25
%
10
mi
1015.2
mb
None E 23
mph
0.00"
KCAV 151615Z AUTO 09020KT 10SM CLR 22/01 A2998 RMK A01
10:55AM
VFR
70° 32° 70° 25
%
10
mi
1015.2
mb
None E 23
mph
0.00"
KCAV 151555Z AUTO 09020KT 10SM CLR 21/00 A2998 RMK A01
10:35AM
VFR
68° 32° 68° 26
%
10
mi
1015.2
mb
None E 22
mph
0.00"
KCAV 151535Z AUTO 10019KT 10SM CLR 20/00 A2998 RMK A01
10:15AM
VFR
68° 32° 68° 26
%
10
mi
1015.2
mb
None E 22
mph
28
mph
0.00"
KCAV 151515Z AUTO 10019G24KT 10SM CLR 20/00 A2998 RMK A01
9:55AM
VFR
66° 32° 66° 28
%
10
mi
1015.2
mb
None E 23
mph
0.00"
KCAV 151455Z AUTO 10020KT 10SM CLR 19/00 A2998 RMK A01
9:35AM
VFR
64° 32° 64° 30
%
10
mi
1015.2
mb
None E 20
mph
25
mph
0.00"
KCAV 151435Z AUTO 09017G22KT 10SM CLR 18/00 A2998 RMK A01
9:15AM
VFR
63° 32° 63° 32
%
10
mi
1015.2
mb
None E 21
mph
0.00"
KCAV 151415Z AUTO 08018KT 10SM CLR 17/M00 A2998 RMK A01
8:55AM
VFR
61° 32° 61° 34
%
10
mi
1015.6
mb
None E 17
mph
0.00"
KCAV 151355Z AUTO 08015KT 10SM CLR 16/00 A2999 RMK A01
8:35AM
VFR
57° 34° 57° 41
%
10
mi
1015.9
mb
None E 14
mph
0.00"
KCAV 151335Z AUTO 09012KT 10SM CLR 14/01 A3000 RMK A01
8:15AM
VFR
54° 32° 54° 44
%
10
mi
1015.6
mb
None E 9
mph
0.00"
KCAV 151315Z AUTO 08008KT 10SM CLR 12/00 A2999 RMK A01
7:55AM
VFR
52° 32° 52° 47
%
10
mi
1015.6
mb
None E 9
mph
0.00"
KCAV 151255Z AUTO 09008KT 10SM CLR 11/00 A2999 RMK A01
7:35AM
VFR
45° 32° 41° 61
%
10
mi
1015.6
mb
None E 7
mph
0.00"
KCAV 151235Z AUTO 08006KT 10SM CLR 07/00 A2999 RMK A01
Click here to show this page without METARs/TAFs included